createdAt,value
2022-10-19T00:00:27.142Z,16.49
2022-10-19T00:02:55.824Z,16.46
2022-10-19T00:05:23.822Z,16.56
2022-10-19T00:07:52.595Z,16.35
2022-10-19T00:10:22.623Z,16.38
2022-10-19T00:12:50.778Z,16.61
2022-10-19T00:15:26.212Z,16.35
2022-10-19T00:17:54.555Z,16.68
2022-10-19T00:20:25.420Z,16.36
2022-10-19T00:22:53.899Z,16.29
2022-10-19T00:25:24.906Z,16.31
2022-10-19T00:27:58.067Z,16.42
2022-10-19T00:30:28.174Z,16.34
2022-10-19T00:32:58.553Z,16.21
2022-10-19T00:35:27.274Z,16.36
2022-10-19T00:37:57.154Z,16.14
2022-10-19T00:40:28.805Z,16.20
2022-10-19T00:43:00.106Z,15.99
2022-10-19T00:45:35.208Z,15.99
2022-10-19T00:48:03.897Z,15.89
2022-10-19T00:50:34.972Z,15.90
2022-10-19T00:53:06.958Z,15.89
2022-10-19T00:55:36.583Z,16.00
2022-10-19T00:58:18.267Z,15.74
2022-10-19T01:01:03.533Z,15.79
2022-10-19T01:03:35.543Z,15.88
2022-10-19T01:06:05.913Z,15.77
2022-10-19T01:08:35.841Z,16.02
2022-10-19T01:11:23.963Z,15.71
2022-10-19T01:14:07.622Z,15.74
2022-10-19T01:16:51.383Z,15.87
2022-10-19T01:19:41.735Z,15.86
2022-10-19T01:22:25.533Z,15.94
2022-10-19T01:25:02.284Z,15.74
2022-10-19T01:27:46.620Z,15.95
2022-10-19T01:30:19.611Z,15.71
2022-10-19T01:33:03.482Z,15.70
2022-10-19T01:35:44.263Z,15.89
2022-10-19T01:38:24.937Z,15.68
2022-10-19T01:41:07.250Z,15.99
2022-10-19T01:43:46.125Z,15.86
2022-10-19T01:46:25.048Z,15.67
2022-10-19T01:49:02.125Z,15.80
2022-10-19T01:51:37.528Z,15.57
2022-10-19T01:54:17.455Z,15.92
2022-10-19T01:56:48.355Z,15.76
2022-10-19T01:59:24.364Z,15.58
2022-10-19T02:02:07.740Z,15.65
2022-10-19T02:04:40.033Z,15.50
2022-10-19T02:07:10.381Z,15.61
2022-10-19T02:09:42.615Z,15.51
2022-10-19T02:12:14.882Z,15.59
2022-10-19T02:14:48.547Z,15.43
2022-10-19T02:17:32.555Z,15.42
2022-10-19T02:20:02.870Z,15.36
2022-10-19T02:22:32.058Z,15.33
2022-10-19T02:25:00.780Z,15.60
2022-10-19T02:27:30.455Z,15.33
2022-10-19T02:30:06.559Z,15.39
2022-10-19T02:32:42.016Z,15.25
2022-10-19T02:35:13.549Z,15.63
2022-10-19T02:37:42.895Z,15.48
2022-10-19T02:40:17.653Z,15.37
2022-10-19T02:42:56.430Z,15.29
2022-10-19T02:45:43.265Z,15.38
2022-10-19T02:48:23.107Z,15.43
2022-10-19T02:50:54.789Z,15.40
2022-10-19T02:53:24.310Z,15.20
2022-10-19T02:55:54.149Z,15.41
2022-10-19T02:58:22.907Z,15.36
2022-10-19T03:00:54.385Z,15.24
2022-10-19T03:03:29.230Z,15.21
2022-10-19T03:05:59.110Z,15.40
2022-10-19T03:08:33.843Z,15.41
2022-10-19T03:11:04.251Z,15.41
2022-10-19T03:13:34.127Z,15.38
2022-10-19T03:16:23.631Z,15.15
2022-10-19T03:18:57.222Z,15.06
2022-10-19T03:21:30.992Z,15.22
2022-10-19T03:24:08.496Z,15.17
2022-10-19T03:26:53.845Z,15.38
2022-10-19T03:29:29.360Z,15.23
2022-10-19T03:32:02.456Z,14.98
2022-10-19T03:34:32.408Z,14.99
2022-10-19T03:37:03.412Z,15.00
2022-10-19T03:39:35.017Z,14.96
2022-10-19T03:42:04.192Z,14.95
2022-10-19T03:44:34.834Z,14.97
2022-10-19T03:47:08.473Z,15.10
2022-10-19T03:49:42.614Z,14.99
2022-10-19T03:52:17.963Z,15.05
2022-10-19T03:54:52.356Z,14.93
2022-10-19T03:57:28.506Z,14.88
2022-10-19T04:00:00.142Z,15.08
2022-10-19T04:02:31.784Z,14.99
2022-10-19T04:05:10.373Z,14.84
2022-10-19T04:07:41.240Z,14.87
2022-10-19T04:10:14.542Z,14.88
2022-10-19T04:12:53.986Z,14.87
2022-10-19T04:15:25.801Z,14.97
2022-10-19T04:18:02.400Z,14.82
2022-10-19T04:20:37.247Z,15.16
2022-10-19T04:23:06.485Z,14.80
2022-10-19T04:25:38.268Z,14.87
2022-10-19T04:28:11.893Z,14.88
2022-10-19T04:30:42.046Z,15.06
2022-10-19T04:33:18.965Z,14.96
2022-10-19T04:35:52.457Z,14.89
2022-10-19T04:38:23.508Z,14.83
2022-10-19T04:40:55.115Z,14.98
2022-10-19T04:43:28.731Z,15.13
2022-10-19T04:46:08.350Z,15.00
2022-10-19T04:48:39.186Z,14.84
2022-10-19T04:51:32.999Z,15.01
2022-10-19T04:54:02.140Z,14.94
2022-10-19T04:56:33.468Z,14.72
2022-10-19T04:59:12.524Z,14.88
2022-10-19T05:01:46.554Z,14.87
2022-10-19T05:04:16.802Z,14.91
2022-10-19T05:06:48.553Z,14.61
2022-10-19T05:09:20.121Z,14.61
2022-10-19T05:11:54.569Z,14.69
2022-10-19T05:17:00.271Z,14.56
2022-10-19T05:19:40.462Z,14.71
2022-10-19T05:22:10.451Z,14.54
2022-10-19T05:24:39.332Z,14.50
2022-10-19T05:27:10.822Z,14.67
2022-10-19T05:29:39.710Z,14.73
2022-10-19T05:32:11.236Z,14.64
2022-10-19T05:34:43.678Z,14.64
2022-10-19T05:37:16.081Z,14.47
2022-10-19T05:39:46.220Z,14.61
2022-10-19T05:42:18.765Z,14.42
2022-10-19T05:44:47.150Z,14.52
2022-10-19T05:47:18.244Z,14.47
2022-10-19T05:49:48.993Z,14.43
2022-10-19T05:52:19.279Z,14.68
2022-10-19T05:54:47.333Z,14.32
2022-10-19T05:57:15.888Z,14.57
2022-10-19T05:59:44.859Z,14.64
2022-10-19T06:02:16.127Z,14.43
2022-10-19T06:04:44.900Z,14.44
2022-10-19T06:07:13.020Z,14.36
2022-10-19T06:09:42.388Z,14.40
2022-10-19T06:12:11.175Z,14.49
2022-10-19T06:14:39.161Z,14.38
2022-10-19T06:17:07.699Z,14.28
2022-10-19T06:19:36.993Z,14.44
2022-10-19T06:22:05.367Z,14.56
2022-10-19T06:24:36.254Z,14.35
2022-10-19T06:27:07.044Z,14.39
2022-10-19T06:29:35.052Z,14.43
2022-10-19T06:32:06.034Z,14.38
2022-10-19T06:34:34.547Z,14.32
2022-10-19T06:37:02.521Z,14.44
2022-10-19T06:39:30.893Z,14.53
2022-10-19T06:41:59.120Z,14.36
2022-10-19T06:44:29.206Z,14.57
2022-10-19T06:46:58.368Z,14.35
2022-10-19T06:49:26.812Z,14.43
2022-10-19T06:51:54.818Z,14.47
2022-10-19T06:54:25.660Z,14.22
2022-10-19T06:56:53.702Z,14.48
2022-10-19T06:59:21.763Z,14.42
2022-10-19T07:01:52.561Z,14.30
2022-10-19T07:04:20.555Z,14.36
2022-10-19T07:06:48.741Z,14.26
2022-10-19T07:09:17.895Z,14.43
2022-10-19T07:11:46.384Z,14.58
2022-10-19T07:14:15.746Z,14.32
2022-10-19T07:16:43.755Z,14.56
2022-10-19T07:19:13.642Z,14.39
2022-10-19T07:21:43.983Z,14.32
2022-10-19T07:24:11.995Z,14.48
2022-10-19T07:26:39.795Z,14.32
2022-10-19T07:29:08.016Z,14.62
2022-10-19T07:31:35.844Z,14.58
2022-10-19T07:34:05.591Z,14.79
2022-10-19T07:36:37.176Z,14.73
2022-10-19T07:39:06.832Z,14.79
2022-10-19T07:41:35.864Z,14.97
2022-10-19T07:44:21.192Z,14.98
2022-10-19T07:46:52.209Z,14.97
2022-10-19T07:49:25.066Z,14.81
2022-10-19T07:52:10.962Z,14.98
2022-10-19T07:54:39.451Z,14.96
2022-10-19T07:57:13.571Z,15.11
2022-10-19T07:59:43.513Z,15.40
2022-10-19T08:02:15.974Z,15.25
2022-10-19T08:05:00.832Z,15.48
2022-10-19T08:07:34.284Z,15.46
2022-10-19T08:10:02.755Z,15.58
2022-10-19T08:12:30.779Z,15.57
2022-10-19T08:14:58.682Z,15.62
2022-10-19T08:17:28.547Z,15.53
2022-10-19T08:19:56.480Z,15.58
2022-10-19T08:22:24.811Z,15.65
2022-10-19T08:24:54.203Z,15.79
2022-10-19T08:27:22.163Z,15.80
2022-10-19T08:29:50.628Z,15.87
2022-10-19T08:32:19.376Z,16.07
2022-10-19T08:34:47.313Z,16.05
2022-10-19T08:37:25.804Z,15.99
2022-10-19T08:40:06.610Z,15.87
2022-10-19T08:42:52.207Z,16.00
2022-10-19T08:48:26.486Z,16.10
2022-10-19T08:50:57.082Z,16.08
2022-10-19T08:56:51.117Z,16.18
2022-10-19T08:59:29.782Z,16.35
2022-10-19T09:02:01.290Z,16.39
2022-10-19T09:04:34.038Z,16.38
2022-10-19T09:07:21.144Z,16.49
2022-10-19T09:09:55.340Z,16.64
2022-10-19T09:12:37.228Z,16.60
2022-10-19T09:15:08.818Z,16.66
2022-10-19T09:17:36.699Z,16.65
2022-10-19T09:20:17.249Z,17.01
2022-10-19T09:22:46.066Z,17.04
2022-10-19T09:25:26.933Z,16.99
2022-10-19T09:28:16.955Z,16.87
2022-10-19T09:31:06.350Z,17.03
2022-10-19T09:33:38.301Z,16.95
2022-10-19T09:36:10.399Z,17.15
2022-10-19T09:38:40.174Z,17.18
2022-10-19T09:41:19.354Z,17.40
2022-10-19T09:43:54.548Z,17.34
2022-10-19T09:46:32.215Z,17.29
2022-10-19T09:49:02.466Z,17.43
2022-10-19T09:51:41.798Z,17.56
2022-10-19T09:54:32.350Z,17.75
2022-10-19T09:57:00.392Z,17.78
2022-10-19T10:02:23.810Z,17.91
2022-10-19T10:04:57.665Z,17.81
2022-10-19T10:07:33.972Z,17.86
2022-10-19T10:10:02.204Z,18.05
2022-10-19T10:12:30.032Z,17.93
2022-10-19T10:14:59.602Z,18.07
2022-10-19T10:17:31.794Z,18.08
2022-10-19T10:20:20.401Z,18.23
2022-10-19T10:22:57.317Z,17.97
2022-10-19T10:25:33.434Z,18.05
2022-10-19T10:28:04.171Z,18.15
2022-10-19T10:30:37.039Z,18.09
2022-10-19T10:33:13.460Z,18.29
2022-10-19T10:35:56.377Z,18.34
2022-10-19T10:38:34.961Z,18.40
2022-10-19T10:41:07.937Z,18.34
2022-10-19T10:43:41.391Z,18.45
2022-10-19T10:46:21.711Z,18.64
2022-10-19T10:48:57.510Z,18.47
2022-10-19T10:51:33.857Z,18.58
2022-10-19T10:54:16.701Z,18.64
2022-10-19T10:56:46.695Z,18.73
2022-10-19T10:59:20.653Z,18.71
2022-10-19T11:01:59.883Z,18.74
2022-10-19T11:04:36.162Z,18.86
2022-10-19T11:07:16.774Z,18.61
2022-10-19T11:09:47.829Z,18.79
2022-10-19T11:12:20.296Z,18.93
2022-10-19T11:14:52.455Z,18.93
2022-10-19T11:17:26.840Z,18.99
2022-10-19T11:19:55.719Z,18.98
2022-10-19T11:22:43.177Z,18.77
2022-10-19T11:25:28.708Z,18.95
2022-10-19T11:28:02.631Z,19.14
2022-10-19T11:30:35.008Z,19.10
2022-10-19T11:33:15.556Z,19.16
2022-10-19T11:35:53.118Z,19.26
2022-10-19T11:38:33.091Z,19.32
2022-10-19T11:41:18.623Z,19.11
2022-10-19T11:43:57.853Z,19.09
2022-10-19T11:46:33.821Z,19.09
2022-10-19T11:49:14.315Z,19.09
2022-10-19T11:51:49.925Z,19.30
2022-10-19T11:54:33.494Z,19.29
2022-10-19T11:57:11.677Z,19.39
2022-10-19T11:59:51.367Z,19.28
2022-10-19T12:02:58.507Z,19.37
2022-10-19T12:05:35.157Z,19.32
2022-10-19T12:08:23.169Z,19.22
2022-10-19T12:11:03.280Z,19.30
2022-10-19T12:13:37.763Z,19.30
2022-10-19T12:16:07.075Z,19.40
2022-10-19T12:18:40.533Z,19.45
2022-10-19T12:21:15.777Z,19.53
2022-10-19T12:23:47.243Z,19.40
2022-10-19T12:28:52.170Z,19.49
2022-10-19T12:31:23.145Z,19.60
2022-10-19T12:33:59.056Z,19.62
2022-10-19T12:36:36.960Z,19.61
2022-10-19T12:39:13.441Z,19.70
2022-10-19T12:41:47.142Z,19.70
2022-10-19T12:44:34.181Z,19.84
2022-10-19T12:47:11.228Z,19.84
2022-10-19T12:49:46.842Z,19.91
2022-10-19T12:52:18.878Z,19.95
2022-10-19T12:54:47.467Z,19.93
2022-10-19T12:57:29.916Z,19.92
2022-10-19T13:00:05.204Z,20.13
2022-10-19T13:02:39.157Z,20.20
2022-10-19T13:05:08.167Z,20.22
2022-10-19T13:07:38.105Z,20.21
2022-10-19T13:10:10.162Z,20.13
2022-10-19T13:12:47.163Z,20.12
2022-10-19T13:15:51.911Z,20.26
2022-10-19T13:19:07.480Z,20.23
2022-10-19T13:21:46.702Z,20.25
2022-10-19T13:24:29.297Z,20.22
2022-10-19T13:27:40.677Z,20.37
2022-10-19T13:30:54.602Z,20.37
2022-10-19T13:33:52.382Z,20.37
2022-10-19T13:36:22.045Z,20.27
2022-10-19T13:39:06.569Z,20.31
2022-10-19T13:42:00.149Z,20.40
2022-10-19T13:44:35.872Z,20.32
2022-10-19T13:47:25.460Z,20.24
2022-10-19T13:50:07.864Z,20.34
2022-10-19T13:52:59.663Z,20.43
2022-10-19T14:04:04.554Z,20.22
2022-10-19T14:06:37.631Z,20.21
2022-10-19T14:09:48.418Z,20.46
2022-10-19T14:12:24.038Z,20.15
2022-10-19T14:14:53.822Z,20.17
2022-10-19T14:17:25.823Z,20.34
2022-10-19T14:19:58.096Z,20.18
2022-10-19T14:22:30.209Z,20.31
2022-10-19T14:25:03.503Z,20.27
2022-10-19T14:27:33.343Z,20.26
2022-10-19T14:30:01.952Z,20.24
2022-10-19T14:35:23.049Z,20.35
2022-10-19T14:37:52.010Z,20.30
2022-10-19T14:40:30.795Z,20.33
2022-10-19T14:43:00.482Z,20.17
2022-10-19T14:45:30.704Z,20.23
2022-10-19T14:48:01.519Z,20.27
2022-10-19T14:50:44.354Z,20.14
2022-10-19T14:53:26.020Z,20.32
2022-10-19T14:55:58.218Z,20.24
2022-10-19T14:58:28.238Z,20.16
2022-10-19T15:00:56.822Z,20.04
2022-10-19T15:03:31.934Z,20.22
2022-10-19T15:06:10.240Z,20.07
2022-10-19T15:08:42.913Z,20.07
2022-10-19T15:11:23.458Z,20.07
2022-10-19T15:13:59.714Z,20.09
2022-10-19T15:16:47.135Z,19.88
2022-10-19T15:19:27.557Z,20.00
2022-10-19T15:22:15.731Z,19.96
2022-10-19T15:24:57.940Z,19.98
2022-10-19T15:27:32.168Z,19.87
2022-10-19T15:30:02.807Z,19.74
2022-10-19T15:32:35.315Z,19.79
2022-10-19T15:35:12.533Z,19.85
2022-10-19T15:37:46.299Z,19.86
2022-10-19T15:40:21.432Z,19.83
2022-10-19T15:42:49.396Z,19.73
2022-10-19T15:45:35.893Z,19.79
2022-10-19T15:48:25.300Z,19.61
2022-10-19T15:50:54.199Z,19.74
2022-10-19T15:53:24.163Z,19.39
2022-10-19T15:55:52.001Z,19.59
2022-10-19T15:58:21.641Z,19.40
2022-10-19T16:00:49.976Z,19.59
2022-10-19T16:03:17.757Z,19.60
2022-10-19T16:05:46.311Z,19.47
2022-10-19T16:08:14.970Z,19.56
2022-10-19T16:10:44.216Z,19.52
2022-10-19T16:13:12.561Z,19.51
2022-10-19T16:15:40.378Z,19.49
2022-10-19T16:18:08.194Z,19.44
2022-10-19T16:20:36.477Z,19.27
2022-10-19T16:23:04.345Z,19.46
2022-10-19T16:25:32.469Z,19.18
2022-10-19T16:28:02.233Z,19.23
2022-10-19T16:30:30.088Z,19.35
2022-10-19T16:32:58.361Z,19.33
2022-10-19T16:35:26.327Z,19.29
2022-10-19T16:37:54.192Z,19.20
2022-10-19T16:40:22.766Z,19.18
2022-10-19T16:42:50.568Z,19.11
2022-10-19T23:46:13.263Z,17.02
2022-10-19T23:48:47.713Z,16.72
2022-10-19T23:51:46.209Z,16.79
2022-10-19T23:54:35.378Z,16.66
2022-10-19T23:57:24.066Z,16.65
